map of OGG home
OGG - Airport
Location
City:  Kahului, Maui, Hawaii, United States
ICAO:PHOG
IATA:OGG
FAA LID:OGG

Details
Type:Airport (Part 139 Class I)
Use:Public/Civil, International (customs landing rights)
Latitude:2053'55"N (20.898650)
Longitude:15625'50"W (-156.430457)
Datum:WGS 1984
Elevation:53 ft (16 m)
Variation:9.52E (WMM2015 magnetic declination)
-0.03 annual change
Runways:2
Longest:6995 × 150 ft (2132 × 45.5 m), paved

Time
Time Zone:UTC-10
Local Time:

Weather
METAR:PHOG 260254Z COR 09010KT 10SM FEW040 SCT110 26/21 A3002 RMK AO2 SLP172 T02610206 53002
TAF:PHOG 260315Z 2603/2624 07010KT P6SM VCSH SCT030 BKN100
FM262000 07014G24KT P6SM SCT030 SCT050

Related Locations
Nearby:
Farthest:FBRK: 12397 mi / 19951 km
Rakops [Rakops Airport], CE, BW

Find:

   beyond  
but within

Other Information
Maps:
Delays:
NOTAMs:
Links:
Sources:

  
flag of United States
flag of Hawaii
  

Airport Diagram

Airport diagram for OGG

Airport diagram PDF

Sectional Chart

Flight Planning
at skyvector.com

Satellite Image

Google Maps Satellite view

 

Copyright © 2004-2018 Karl L. Swartz. All rights reserved.
The Great Circle Mapper name and logo are trademarks of the Great Circle Mapper.
All other trademarks mentioned herein belong to their respective owners.
Please see credits for attibutions and further copyright information.

  Follow gcmap on Facebook Follow gcmap on Twitter Follow gcmap on Google+ GCmap on LinkedIn

hCard Microformat

Geo Microformat